sensor_id;sensor_type;location;lat;lon;timestamp;P1;durP1;ratioP1;P2;durP2;ratioP2
19495;SDS011;9888;48.606;9.630;2022-12-15T00:01:22;31.63;;;15.07;;
19495;SDS011;9888;48.606;9.630;2022-12-15T00:04:07;31.67;;;13.50;;
19495;SDS011;9888;48.606;9.630;2022-12-15T00:06:52;26.87;;;12.73;;
19495;SDS011;9888;48.606;9.630;2022-12-15T00:09:37;31.00;;;13.50;;
19495;SDS011;9888;48.606;9.630;2022-12-15T00:12:22;31.27;;;13.70;;
19495;SDS011;9888;48.606;9.630;2022-12-15T00:15:07;27.43;;;12.50;;
19495;SDS011;9888;48.606;9.630;2022-12-15T00:17:53;28.40;;;13.37;;
19495;SDS011;9888;48.606;9.630;2022-12-15T00:20:38;35.83;;;14.67;;
19495;SDS011;9888;48.606;9.630;2022-12-15T00:23:23;32.77;;;14.97;;
19495;SDS011;9888;48.606;9.630;2022-12-15T00:26:07;30.37;;;13.67;;
19495;SDS011;9888;48.606;9.630;2022-12-15T00:28:57;29.70;;;12.80;;
19495;SDS011;9888;48.606;9.630;2022-12-15T00:31:42;26.80;;;13.07;;
19495;SDS011;9888;48.606;9.630;2022-12-15T00:34:26;25.30;;;12.13;;
19495;SDS011;9888;48.606;9.630;2022-12-15T00:37:11;30.97;;;12.77;;
19495;SDS011;9888;48.606;9.630;2022-12-15T00:39:56;33.30;;;14.60;;
19495;SDS011;9888;48.606;9.630;2022-12-15T00:42:29;32.90;;;13.97;;
19495;SDS011;9888;48.606;9.630;2022-12-15T00:44:57;30.83;;;14.00;;
19495;SDS011;9888;48.606;9.630;2022-12-15T00:47:24;35.80;;;14.83;;
19495;SDS011;9888;48.606;9.630;2022-12-15T00:49:50;31.17;;;14.17;;
19495;SDS011;9888;48.606;9.630;2022-12-15T00:52:35;33.27;;;14.60;;
19495;SDS011;9888;48.606;9.630;2022-12-15T00:55:20;33.00;;;14.07;;
19495;SDS011;9888;48.606;9.630;2022-12-15T00:58:05;29.73;;;14.10;;
19495;SDS011;9888;48.606;9.630;2022-12-15T01:00:51;29.97;;;14.07;;
19495;SDS011;9888;48.606;9.630;2022-12-15T01:03:36;28.97;;;12.90;;
19495;SDS011;9888;48.606;9.630;2022-12-15T01:06:21;33.60;;;14.10;;
19495;SDS011;9888;48.606;9.630;2022-12-15T01:09:07;27.93;;;13.57;;
19495;SDS011;9888;48.606;9.630;2022-12-15T01:11:52;28.87;;;12.40;;
19495;SDS011;9888;48.606;9.630;2022-12-15T01:14:37;27.07;;;13.27;;
19495;SDS011;9888;48.606;9.630;2022-12-15T01:17:23;32.53;;;13.40;;
19495;SDS011;9888;48.606;9.630;2022-12-15T01:20:08;25.63;;;12.47;;
19495;SDS011;9888;48.606;9.630;2022-12-15T01:22:48;30.43;;;13.40;;
19495;SDS011;9888;48.606;9.630;2022-12-15T01:25:20;34.70;;;13.53;;
19495;SDS011;9888;48.606;9.630;2022-12-15T01:27:49;31.83;;;13.27;;
19495;SDS011;9888;48.606;9.630;2022-12-15T01:30:21;29.13;;;12.30;;
19495;SDS011;9888;48.606;9.630;2022-12-15T01:32:49;28.60;;;12.17;;
19495;SDS011;9888;48.606;9.630;2022-12-15T01:35:16;29.83;;;12.70;;
19495;SDS011;9888;48.606;9.630;2022-12-15T01:37:44;31.20;;;13.33;;
19495;SDS011;9888;48.606;9.630;2022-12-15T01:40:13;29.77;;;13.90;;
19495;SDS011;9888;48.606;9.630;2022-12-15T01:43:01;27.13;;;12.13;;
19495;SDS011;9888;48.606;9.630;2022-12-15T01:48:08;31.50;;;12.33;;
19495;SDS011;9888;48.606;9.630;2022-12-15T01:50:44;27.37;;;12.23;;
19495;SDS011;9888;48.606;9.630;2022-12-15T01:53:17;31.73;;;13.23;;
19495;SDS011;9888;48.606;9.630;2022-12-15T01:55:43;30.47;;;13.33;;
19495;SDS011;9888;48.606;9.630;2022-12-15T01:58:11;29.00;;;12.77;;
19495;SDS011;9888;48.606;9.630;2022-12-15T02:00:40;26.43;;;12.53;;
19495;SDS011;9888;48.606;9.630;2022-12-15T02:03:07;30.67;;;14.40;;
19495;SDS011;9888;48.606;9.630;2022-12-15T02:05:36;31.27;;;13.37;;
19495;SDS011;9888;48.606;9.630;2022-12-15T02:08:04;30.57;;;13.27;;
19495;SDS011;9888;48.606;9.630;2022-12-15T02:10:36;31.03;;;13.90;;
19495;SDS011;9888;48.606;9.630;2022-12-15T02:15:54;30.30;;;14.60;;
19495;SDS011;9888;48.606;9.630;2022-12-15T02:18:59;34.20;;;14.23;;
19495;SDS011;9888;48.606;9.630;2022-12-15T02:21:28;36.50;;;14.30;;
19495;SDS011;9888;48.606;9.630;2022-12-15T02:24:29;34.70;;;13.10;;
19495;SDS011;9888;48.606;9.630;2022-12-15T02:35:27;36.13;;;15.20;;
19495;SDS011;9888;48.606;9.630;2022-12-15T02:38:01;33.00;;;15.00;;
19495;SDS011;9888;48.606;9.630;2022-12-15T02:40:28;38.50;;;14.63;;
19495;SDS011;9888;48.606;9.630;2022-12-15T02:42:54;32.17;;;13.90;;
19495;SDS011;9888;48.606;9.630;2022-12-15T02:45:30;31.57;;;13.83;;
19495;SDS011;9888;48.606;9.630;2022-12-15T02:51:10;39.10;;;15.43;;
19495;SDS011;9888;48.606;9.630;2022-12-15T02:54:54;35.50;;;15.07;;
19495;SDS011;9888;48.606;9.630;2022-12-15T02:56:59;34.50;;;15.47;;
19495;SDS011;9888;48.606;9.630;2022-12-15T02:59:56;33.10;;;13.87;;
19495;SDS011;9888;48.606;9.630;2022-12-15T03:02:28;33.30;;;14.07;;
19495;SDS011;9888;48.606;9.630;2022-12-15T03:04:58;38.50;;;16.70;;
19495;SDS011;9888;48.606;9.630;2022-12-15T03:07:26;37.40;;;15.13;;
19495;SDS011;9888;48.606;9.630;2022-12-15T03:09:53;36.93;;;16.70;;
19495;SDS011;9888;48.606;9.630;2022-12-15T03:12:22;38.00;;;15.60;;
19495;SDS011;9888;48.606;9.630;2022-12-15T03:14:49;34.37;;;16.03;;
19495;SDS011;9888;48.606;9.630;2022-12-15T03:17:16;35.27;;;15.70;;
19495;SDS011;9888;48.606;9.630;2022-12-15T03:19:44;37.90;;;16.60;;
19495;SDS011;9888;48.606;9.630;2022-12-15T03:22:10;30.43;;;14.67;;
19495;SDS011;9888;48.606;9.630;2022-12-15T03:24:37;36.87;;;15.07;;
19495;SDS011;9888;48.606;9.630;2022-12-15T03:27:04;35.17;;;15.33;;
19495;SDS011;9888;48.606;9.630;2022-12-15T03:29:31;34.13;;;15.73;;
19495;SDS011;9888;48.606;9.630;2022-12-15T03:31:58;35.47;;;15.53;;
19495;SDS011;9888;48.606;9.630;2022-12-15T03:34:32;34.80;;;16.00;;
19495;SDS011;9888;48.606;9.630;2022-12-15T03:36:59;39.67;;;15.50;;
19495;SDS011;9888;48.606;9.630;2022-12-15T03:39:25;39.27;;;16.27;;
19495;SDS011;9888;48.606;9.630;2022-12-15T03:41:53;39.93;;;15.97;;
19495;SDS011;9888;48.606;9.630;2022-12-15T03:44:20;37.77;;;16.00;;
19495;SDS011;9888;48.606;9.630;2022-12-15T03:46:47;34.90;;;16.53;;
19495;SDS011;9888;48.606;9.630;2022-12-15T03:49:15;35.73;;;16.47;;
19495;SDS011;9888;48.606;9.630;2022-12-15T03:51:42;37.43;;;17.23;;
19495;SDS011;9888;48.606;9.630;2022-12-15T03:54:10;40.10;;;16.33;;
19495;SDS011;9888;48.606;9.630;2022-12-15T03:59:50;36.67;;;16.73;;
19495;SDS011;9888;48.606;9.630;2022-12-15T04:02:16;37.70;;;15.77;;
19495;SDS011;9888;48.606;9.630;2022-12-15T04:04:43;32.80;;;15.47;;
19495;SDS011;9888;48.606;9.630;2022-12-15T04:07:10;35.67;;;15.60;;
19495;SDS011;9888;48.606;9.630;2022-12-15T04:09:37;40.37;;;16.20;;
19495;SDS011;9888;48.606;9.630;2022-12-15T04:12:04;36.57;;;15.53;;
19495;SDS011;9888;48.606;9.630;2022-12-15T04:14:31;36.53;;;15.50;;
19495;SDS011;9888;48.606;9.630;2022-12-15T04:16:58;33.20;;;15.80;;
19495;SDS011;9888;48.606;9.630;2022-12-15T04:19:24;32.50;;;14.97;;
19495;SDS011;9888;48.606;9.630;2022-12-15T04:22:10;32.60;;;14.97;;
19495;SDS011;9888;48.606;9.630;2022-12-15T04:24:37;30.90;;;14.63;;
19495;SDS011;9888;48.606;9.630;2022-12-15T04:27:21;27.63;;;13.47;;
19495;SDS011;9888;48.606;9.630;2022-12-15T04:30:07;31.10;;;13.53;;
19495;SDS011;9888;48.606;9.630;2022-12-15T04:32:52;29.87;;;13.50;;
19495;SDS011;9888;48.606;9.630;2022-12-15T04:35:37;29.23;;;14.30;;
19495;SDS011;9888;48.606;9.630;2022-12-15T04:38:22;38.17;;;15.40;;
19495;SDS011;9888;48.606;9.630;2022-12-15T04:41:07;32.53;;;14.53;;
19495;SDS011;9888;48.606;9.630;2022-12-15T04:43:51;29.27;;;15.37;;
19495;SDS011;9888;48.606;9.630;2022-12-15T04:46:36;35.60;;;15.20;;
19495;SDS011;9888;48.606;9.630;2022-12-15T04:49:21;36.60;;;15.33;;
19495;SDS011;9888;48.606;9.630;2022-12-15T04:52:06;32.53;;;15.20;;
19495;SDS011;9888;48.606;9.630;2022-12-15T04:54:50;29.57;;;14.83;;
19495;SDS011;9888;48.606;9.630;2022-12-15T04:57:36;33.70;;;15.03;;
19495;SDS011;9888;48.606;9.630;2022-12-15T05:00:22;30.30;;;13.40;;
19495;SDS011;9888;48.606;9.630;2022-12-15T05:03:07;33.43;;;15.00;;
19495;SDS011;9888;48.606;9.630;2022-12-15T05:05:51;31.03;;;14.40;;
19495;SDS011;9888;48.606;9.630;2022-12-15T05:08:36;31.03;;;14.90;;
19495;SDS011;9888;48.606;9.630;2022-12-15T05:11:21;30.87;;;14.40;;
19495;SDS011;9888;48.606;9.630;2022-12-15T05:14:06;29.23;;;14.03;;
19495;SDS011;9888;48.606;9.630;2022-12-15T05:16:51;27.43;;;14.23;;
19495;SDS011;9888;48.606;9.630;2022-12-15T05:19:37;34.13;;;14.73;;
19495;SDS011;9888;48.606;9.630;2022-12-15T05:22:22;34.90;;;16.00;;
19495;SDS011;9888;48.606;9.630;2022-12-15T05:25:07;32.53;;;14.00;;
19495;SDS011;9888;48.606;9.630;2022-12-15T05:27:52;31.17;;;13.87;;
19495;SDS011;9888;48.606;9.630;2022-12-15T05:30:36;33.17;;;15.00;;
19495;SDS011;9888;48.606;9.630;2022-12-15T05:33:21;31.73;;;14.50;;
19495;SDS011;9888;48.606;9.630;2022-12-15T05:35:48;34.10;;;15.27;;
19495;SDS011;9888;48.606;9.630;2022-12-15T05:38:15;33.20;;;15.13;;
19495;SDS011;9888;48.606;9.630;2022-12-15T05:40:42;34.73;;;15.27;;
19495;SDS011;9888;48.606;9.630;2022-12-15T05:43:10;30.43;;;14.27;;
19495;SDS011;9888;48.606;9.630;2022-12-15T05:45:37;32.30;;;15.03;;
19495;SDS011;9888;48.606;9.630;2022-12-15T05:48:04;30.80;;;14.00;;
19495;SDS011;9888;48.606;9.630;2022-12-15T05:50:31;34.20;;;14.97;;
19495;SDS011;9888;48.606;9.630;2022-12-15T05:52:58;34.37;;;14.73;;
19495;SDS011;9888;48.606;9.630;2022-12-15T05:55:25;29.47;;;13.80;;
19495;SDS011;9888;48.606;9.630;2022-12-15T05:57:52;29.57;;;13.20;;
19495;SDS011;9888;48.606;9.630;2022-12-15T06:00:20;29.33;;;14.80;;
19495;SDS011;9888;48.606;9.630;2022-12-15T06:02:47;32.93;;;15.23;;
19495;SDS011;9888;48.606;9.630;2022-12-15T06:05:14;40.47;;;17.10;;
19495;SDS011;9888;48.606;9.630;2022-12-15T06:07:42;36.47;;;17.73;;
19495;SDS011;9888;48.606;9.630;2022-12-15T06:10:09;32.40;;;14.70;;
19495;SDS011;9888;48.606;9.630;2022-12-15T06:12:36;38.87;;;16.53;;
19495;SDS011;9888;48.606;9.630;2022-12-15T06:15:04;35.10;;;15.50;;
19495;SDS011;9888;48.606;9.630;2022-12-15T06:17:32;29.43;;;14.00;;
19495;SDS011;9888;48.606;9.630;2022-12-15T06:19:59;31.73;;;15.33;;
19495;SDS011;9888;48.606;9.630;2022-12-15T06:22:27;29.50;;;13.47;;
19495;SDS011;9888;48.606;9.630;2022-12-15T06:24:55;35.90;;;15.47;;
19495;SDS011;9888;48.606;9.630;2022-12-15T06:27:22;33.07;;;14.87;;
19495;SDS011;9888;48.606;9.630;2022-12-15T06:29:50;31.73;;;15.00;;
19495;SDS011;9888;48.606;9.630;2022-12-15T06:32:17;29.97;;;14.43;;
19495;SDS011;9888;48.606;9.630;2022-12-15T06:34:46;28.07;;;13.23;;
19495;SDS011;9888;48.606;9.630;2022-12-15T06:37:20;33.33;;;15.47;;
19495;SDS011;9888;48.606;9.630;2022-12-15T06:43:05;29.50;;;14.23;;
19495;SDS011;9888;48.606;9.630;2022-12-15T06:45:39;46.93;;;16.93;;
19495;SDS011;9888;48.606;9.630;2022-12-15T06:48:29;43.87;;;17.17;;
19495;SDS011;9888;48.606;9.630;2022-12-15T06:51:14;38.20;;;17.23;;
19495;SDS011;9888;48.606;9.630;2022-12-15T06:54:01;36.23;;;18.00;;
19495;SDS011;9888;48.606;9.630;2022-12-15T06:56:46;32.27;;;16.60;;
19495;SDS011;9888;48.606;9.630;2022-12-15T06:59:15;46.87;;;17.30;;
19495;SDS011;9888;48.606;9.630;2022-12-15T07:01:43;34.97;;;15.80;;
19495;SDS011;9888;48.606;9.630;2022-12-15T07:04:23;38.17;;;16.90;;
19495;SDS011;9888;48.606;9.630;2022-12-15T07:06:53;34.30;;;15.20;;
19495;SDS011;9888;48.606;9.630;2022-12-15T07:09:42;30.03;;;14.03;;
19495;SDS011;9888;48.606;9.630;2022-12-15T07:15:21;33.47;;;14.83;;
19495;SDS011;9888;48.606;9.630;2022-12-15T07:17:48;40.70;;;14.60;;
19495;SDS011;9888;48.606;9.630;2022-12-15T07:20:17;36.67;;;15.67;;
19495;SDS011;9888;48.606;9.630;2022-12-15T07:22:49;40.30;;;15.20;;
19495;SDS011;9888;48.606;9.630;2022-12-15T07:25:20;33.77;;;14.50;;
19495;SDS011;9888;48.606;9.630;2022-12-15T07:27:46;34.07;;;15.03;;
19495;SDS011;9888;48.606;9.630;2022-12-15T07:30:15;35.87;;;15.37;;
19495;SDS011;9888;48.606;9.630;2022-12-15T07:32:42;34.77;;;16.37;;
19495;SDS011;9888;48.606;9.630;2022-12-15T07:35:10;34.67;;;13.70;;
19495;SDS011;9888;48.606;9.630;2022-12-15T07:37:39;35.20;;;15.23;;
19495;SDS011;9888;48.606;9.630;2022-12-15T07:40:07;39.20;;;16.07;;
19495;SDS011;9888;48.606;9.630;2022-12-15T07:42:34;37.80;;;16.13;;
19495;SDS011;9888;48.606;9.630;2022-12-15T07:45:02;37.30;;;16.73;;
19495;SDS011;9888;48.606;9.630;2022-12-15T07:47:29;36.93;;;16.43;;
19495;SDS011;9888;48.606;9.630;2022-12-15T07:49:58;32.77;;;15.37;;
19495;SDS011;9888;48.606;9.630;2022-12-15T07:52:25;38.57;;;16.50;;
19495;SDS011;9888;48.606;9.630;2022-12-15T07:54:53;33.93;;;14.23;;
19495;SDS011;9888;48.606;9.630;2022-12-15T07:57:21;32.47;;;16.00;;
19495;SDS011;9888;48.606;9.630;2022-12-15T07:59:49;33.33;;;16.20;;
19495;SDS011;9888;48.606;9.630;2022-12-15T08:02:17;35.27;;;15.50;;
19495;SDS011;9888;48.606;9.630;2022-12-15T08:04:44;40.20;;;17.50;;
19495;SDS011;9888;48.606;9.630;2022-12-15T08:07:11;34.87;;;16.40;;
19495;SDS011;9888;48.606;9.630;2022-12-15T08:09:38;38.57;;;18.23;;
19495;SDS011;9888;48.606;9.630;2022-12-15T08:12:04;35.47;;;16.07;;
19495;SDS011;9888;48.606;9.630;2022-12-15T08:14:32;35.50;;;17.40;;
19495;SDS011;9888;48.606;9.630;2022-12-15T08:17:00;30.40;;;15.60;;
19495;SDS011;9888;48.606;9.630;2022-12-15T08:25:41;36.53;;;17.03;;
19495;SDS011;9888;48.606;9.630;2022-12-15T08:28:19;37.87;;;16.40;;
19495;SDS011;9888;48.606;9.630;2022-12-15T08:30:53;33.53;;;16.77;;
19495;SDS011;9888;48.606;9.630;2022-12-15T08:34:30;39.60;;;17.00;;
19495;SDS011;9888;48.606;9.630;2022-12-15T08:37:00;33.63;;;15.40;;
19495;SDS011;9888;48.606;9.630;2022-12-15T08:39:30;35.20;;;16.20;;
19495;SDS011;9888;48.606;9.630;2022-12-15T08:42:08;37.00;;;17.20;;
19495;SDS011;9888;48.606;9.630;2022-12-15T08:44:52;41.40;;;17.63;;
19495;SDS011;9888;48.606;9.630;2022-12-15T08:50:44;44.20;;;15.70;;
19495;SDS011;9888;48.606;9.630;2022-12-15T08:53:13;35.80;;;17.30;;
19495;SDS011;9888;48.606;9.630;2022-12-15T08:56:00;36.50;;;16.17;;
19495;SDS011;9888;48.606;9.630;2022-12-15T08:58:38;43.27;;;17.73;;
19495;SDS011;9888;48.606;9.630;2022-12-15T09:01:30;40.27;;;16.63;;
19495;SDS011;9888;48.606;9.630;2022-12-15T09:03:58;40.07;;;17.03;;
19495;SDS011;9888;48.606;9.630;2022-12-15T09:06:30;39.27;;;18.30;;
19495;SDS011;9888;48.606;9.630;2022-12-15T09:09:02;25.90;;;10.70;;
19495;SDS011;9888;48.606;9.630;2022-12-15T09:11:31;40.73;;;16.70;;
19495;SDS011;9888;48.606;9.630;2022-12-15T09:14:07;40.70;;;17.20;;
19495;SDS011;9888;48.606;9.630;2022-12-15T09:16:34;40.33;;;17.47;;
19495;SDS011;9888;48.606;9.630;2022-12-15T09:19:03;42.87;;;18.40;;
19495;SDS011;9888;48.606;9.630;2022-12-15T09:21:39;39.17;;;18.10;;
19495;SDS011;9888;48.606;9.630;2022-12-15T09:24:11;44.30;;;18.83;;
19495;SDS011;9888;48.606;9.630;2022-12-15T09:26:38;39.37;;;18.37;;
19495;SDS011;9888;48.606;9.630;2022-12-15T09:29:09;40.10;;;16.77;;
19495;SDS011;9888;48.606;9.630;2022-12-15T09:31:40;42.67;;;18.20;;
19495;SDS011;9888;48.606;9.630;2022-12-15T09:34:10;39.63;;;16.90;;
19495;SDS011;9888;48.606;9.630;2022-12-15T09:36:41;37.33;;;18.20;;
19495;SDS011;9888;48.606;9.630;2022-12-15T09:39:09;40.83;;;17.87;;
19495;SDS011;9888;48.606;9.630;2022-12-15T09:41:37;39.10;;;18.90;;
19495;SDS011;9888;48.606;9.630;2022-12-15T09:44:14;36.80;;;16.70;;
19495;SDS011;9888;48.606;9.630;2022-12-15T09:47:03;38.53;;;17.70;;
19495;SDS011;9888;48.606;9.630;2022-12-15T09:49:52;39.53;;;16.80;;
19495;SDS011;9888;48.606;9.630;2022-12-15T09:52:23;34.27;;;16.47;;
19495;SDS011;9888;48.606;9.630;2022-12-15T09:54:57;43.53;;;18.37;;
19495;SDS011;9888;48.606;9.630;2022-12-15T09:57:36;34.70;;;16.50;;
19495;SDS011;9888;48.606;9.630;2022-12-15T10:00:05;40.73;;;17.27;;
19495;SDS011;9888;48.606;9.630;2022-12-15T10:08:28;37.60;;;17.13;;
19495;SDS011;9888;48.606;9.630;2022-12-15T10:13:39;38.17;;;15.87;;
19495;SDS011;9888;48.606;9.630;2022-12-15T10:19:48;35.60;;;16.80;;
19495;SDS011;9888;48.606;9.630;2022-12-15T10:22:42;36.83;;;16.90;;
19495;SDS011;9888;48.606;9.630;2022-12-15T10:25:25;36.33;;;16.80;;
19495;SDS011;9888;48.606;9.630;2022-12-15T10:30:50;38.03;;;16.20;;
19495;SDS011;9888;48.606;9.630;2022-12-15T10:33:27;34.00;;;16.20;;
19495;SDS011;9888;48.606;9.630;2022-12-15T10:36:09;35.23;;;14.90;;
19495;SDS011;9888;48.606;9.630;2022-12-15T10:38:42;36.97;;;15.43;;
19495;SDS011;9888;48.606;9.630;2022-12-15T10:41:15;34.80;;;15.37;;
19495;SDS011;9888;48.606;9.630;2022-12-15T10:43:48;32.93;;;14.90;;
19495;SDS011;9888;48.606;9.630;2022-12-15T10:46:22;31.07;;;15.30;;
19495;SDS011;9888;48.606;9.630;2022-12-15T10:51:34;32.77;;;15.30;;
19495;SDS011;9888;48.606;9.630;2022-12-15T10:56:56;32.43;;;15.00;;
19495;SDS011;9888;48.606;9.630;2022-12-15T10:59:32;29.70;;;13.83;;
19495;SDS011;9888;48.606;9.630;2022-12-15T11:04:56;39.93;;;12.57;;
19495;SDS011;9888;48.606;9.630;2022-12-15T11:07:45;34.13;;;15.23;;
19495;SDS011;9888;48.606;9.630;2022-12-15T11:10:26;30.63;;;14.20;;
19495;SDS011;9888;48.606;9.630;2022-12-15T11:13:16;27.63;;;13.70;;
19495;SDS011;9888;48.606;9.630;2022-12-15T11:18:36;30.03;;;12.03;;
19495;SDS011;9888;48.606;9.630;2022-12-15T11:26:45;33.20;;;12.63;;
19495;SDS011;9888;48.606;9.630;2022-12-15T11:32:22;32.57;;;14.10;;
19495;SDS011;9888;48.606;9.630;2022-12-15T11:34:51;29.57;;;14.77;;
19495;SDS011;9888;48.606;9.630;2022-12-15T11:40:26;31.27;;;13.93;;
19495;SDS011;9888;48.606;9.630;2022-12-15T11:49:02;39.50;;;15.27;;
19495;SDS011;9888;48.606;9.630;2022-12-15T11:52:09;30.43;;;13.80;;
19495;SDS011;9888;48.606;9.630;2022-12-15T11:54:54;30.03;;;13.70;;
19495;SDS011;9888;48.606;9.630;2022-12-15T11:57:44;34.20;;;13.23;;
19495;SDS011;9888;48.606;9.630;2022-12-15T12:00:20;28.27;;;12.30;;
19495;SDS011;9888;48.606;9.630;2022-12-15T12:02:56;25.83;;;11.73;;
19495;SDS011;9888;48.606;9.630;2022-12-15T12:12:10;27.77;;;12.70;;
19495;SDS011;9888;48.606;9.630;2022-12-15T12:14:55;23.70;;;10.90;;
19495;SDS011;9888;48.606;9.630;2022-12-15T12:17:44;35.00;;;10.07;;
19495;SDS011;9888;48.606;9.630;2022-12-15T12:20:18;26.40;;;11.13;;
19495;SDS011;9888;48.606;9.630;2022-12-15T12:23:03;27.00;;;10.13;;
19495;SDS011;9888;48.606;9.630;2022-12-15T12:28:44;26.30;;;10.50;;
19495;SDS011;9888;48.606;9.630;2022-12-15T12:34:14;24.97;;;10.70;;
19495;SDS011;9888;48.606;9.630;2022-12-15T12:37:00;30.23;;;11.67;;
19495;SDS011;9888;48.606;9.630;2022-12-15T12:39:38;28.73;;;11.80;;
19495;SDS011;9888;48.606;9.630;2022-12-15T12:42:14;23.60;;;10.50;;
19495;SDS011;9888;48.606;9.630;2022-12-15T12:44:49;21.00;;;10.07;;
19495;SDS011;9888;48.606;9.630;2022-12-15T12:47:20;24.30;;;11.07;;
19495;SDS011;9888;48.606;9.630;2022-12-15T12:49:56;27.33;;;11.43;;
19495;SDS011;9888;48.606;9.630;2022-12-15T12:52:32;25.67;;;11.20;;
19495;SDS011;9888;48.606;9.630;2022-12-15T12:57:38;25.27;;;9.77;;
19495;SDS011;9888;48.606;9.630;2022-12-15T13:00:13;22.77;;;9.90;;
19495;SDS011;9888;48.606;9.630;2022-12-15T13:02:53;21.37;;;9.80;;
19495;SDS011;9888;48.606;9.630;2022-12-15T13:05:35;23.90;;;10.03;;
19495;SDS011;9888;48.606;9.630;2022-12-15T13:10:30;27.33;;;12.77;;
19495;SDS011;9888;48.606;9.630;2022-12-15T13:15:48;28.17;;;11.33;;
19495;SDS011;9888;48.606;9.630;2022-12-15T13:18:24;26.70;;;11.43;;
19495;SDS011;9888;48.606;9.630;2022-12-15T13:20:53;27.60;;;12.20;;
19495;SDS011;9888;48.606;9.630;2022-12-15T13:41:42;26.03;;;12.60;;
19495;SDS011;9888;48.606;9.630;2022-12-15T13:44:19;30.00;;;10.90;;
19495;SDS011;9888;48.606;9.630;2022-12-15T13:46:50;30.67;;;11.53;;
19495;SDS011;9888;48.606;9.630;2022-12-15T13:49:24;25.37;;;11.07;;
19495;SDS011;9888;48.606;9.630;2022-12-15T13:52:16;26.57;;;11.03;;
19495;SDS011;9888;48.606;9.630;2022-12-15T13:55:02;29.00;;;11.00;;
19495;SDS011;9888;48.606;9.630;2022-12-15T13:57:44;23.07;;;10.67;;
19495;SDS011;9888;48.606;9.630;2022-12-15T14:00:30;33.10;;;13.50;;
19495;SDS011;9888;48.606;9.630;2022-12-15T14:03:05;30.90;;;13.33;;
19495;SDS011;9888;48.606;9.630;2022-12-15T14:05:38;34.00;;;14.70;;
19495;SDS011;9888;48.606;9.630;2022-12-15T14:08:13;31.17;;;14.70;;
19495;SDS011;9888;48.606;9.630;2022-12-15T14:10:48;28.80;;;12.00;;
19495;SDS011;9888;48.606;9.630;2022-12-15T14:16:02;25.20;;;10.20;;
19495;SDS011;9888;48.606;9.630;2022-12-15T14:18:40;27.07;;;9.90;;
19495;SDS011;9888;48.606;9.630;2022-12-15T14:21:20;26.93;;;11.40;;
19495;SDS011;9888;48.606;9.630;2022-12-15T14:23:54;29.60;;;12.70;;
19495;SDS011;9888;48.606;9.630;2022-12-15T14:26:26;28.43;;;11.77;;
19495;SDS011;9888;48.606;9.630;2022-12-15T14:29:00;31.30;;;12.17;;
19495;SDS011;9888;48.606;9.630;2022-12-15T14:31:30;31.43;;;12.53;;
19495;SDS011;9888;48.606;9.630;2022-12-15T14:34:05;30.03;;;12.07;;
19495;SDS011;9888;48.606;9.630;2022-12-15T14:36:38;26.40;;;11.30;;
19495;SDS011;9888;48.606;9.630;2022-12-15T14:39:13;25.10;;;11.80;;
19495;SDS011;9888;48.606;9.630;2022-12-15T14:41:54;30.83;;;12.80;;
19495;SDS011;9888;48.606;9.630;2022-12-15T14:44:31;33.63;;;12.17;;
19495;SDS011;9888;48.606;9.630;2022-12-15T14:47:20;30.77;;;12.93;;
19495;SDS011;9888;48.606;9.630;2022-12-15T14:50:03;29.57;;;13.33;;
19495;SDS011;9888;48.606;9.630;2022-12-15T14:52:42;35.40;;;14.13;;
19495;SDS011;9888;48.606;9.630;2022-12-15T14:55:33;29.83;;;11.80;;
19495;SDS011;9888;48.606;9.630;2022-12-15T15:00:55;30.90;;;12.60;;
19495;SDS011;9888;48.606;9.630;2022-12-15T15:03:54;33.80;;;13.97;;
19495;SDS011;9888;48.606;9.630;2022-12-15T15:06:33;31.73;;;12.10;;
19495;SDS011;9888;48.606;9.630;2022-12-15T15:12:16;34.20;;;12.77;;
19495;SDS011;9888;48.606;9.630;2022-12-15T15:17:34;29.33;;;11.90;;
19495;SDS011;9888;48.606;9.630;2022-12-15T15:20:18;31.37;;;11.80;;
19495;SDS011;9888;48.606;9.630;2022-12-15T15:26:06;30.60;;;10.30;;
19495;SDS011;9888;48.606;9.630;2022-12-15T15:28:43;28.20;;;13.10;;
19495;SDS011;9888;48.606;9.630;2022-12-15T15:34:06;27.93;;;11.90;;
19495;SDS011;9888;48.606;9.630;2022-12-15T15:36:38;29.30;;;12.33;;
19495;SDS011;9888;48.606;9.630;2022-12-15T15:39:11;27.50;;;11.30;;
19495;SDS011;9888;48.606;9.630;2022-12-15T15:41:44;24.47;;;9.70;;
19495;SDS011;9888;48.606;9.630;2022-12-15T15:44:14;27.03;;;12.07;;
19495;SDS011;9888;48.606;9.630;2022-12-15T15:46:49;27.67;;;11.60;;
19495;SDS011;9888;48.606;9.630;2022-12-15T15:49:22;32.70;;;11.47;;
19495;SDS011;9888;48.606;9.630;2022-12-15T15:51:51;24.80;;;9.63;;
19495;SDS011;9888;48.606;9.630;2022-12-15T15:54:23;24.70;;;11.97;;
19495;SDS011;9888;48.606;9.630;2022-12-15T15:57:00;24.83;;;10.53;;
19495;SDS011;9888;48.606;9.630;2022-12-15T15:59:28;26.60;;;11.03;;
19495;SDS011;9888;48.606;9.630;2022-12-15T16:01:57;26.63;;;9.53;;
19495;SDS011;9888;48.606;9.630;2022-12-15T16:04:24;27.87;;;9.70;;
19495;SDS011;9888;48.606;9.630;2022-12-15T16:06:52;31.33;;;11.60;;
19495;SDS011;9888;48.606;9.630;2022-12-15T16:09:21;27.97;;;10.30;;
19495;SDS011;9888;48.606;9.630;2022-12-15T16:17:46;25.73;;;10.23;;
19495;SDS011;9888;48.606;9.630;2022-12-15T16:20:18;26.13;;;10.40;;
19495;SDS011;9888;48.606;9.630;2022-12-15T16:23:17;27.40;;;10.53;;
19495;SDS011;9888;48.606;9.630;2022-12-15T16:25:46;26.20;;;11.30;;
19495;SDS011;9888;48.606;9.630;2022-12-15T16:28:22;26.60;;;10.90;;
19495;SDS011;9888;48.606;9.630;2022-12-15T16:34:03;28.17;;;10.40;;
19495;SDS011;9888;48.606;9.630;2022-12-15T16:36:31;23.47;;;10.27;;
19495;SDS011;9888;48.606;9.630;2022-12-15T16:39:02;53.70;;;15.50;;
19495;SDS011;9888;48.606;9.630;2022-12-15T16:44:49;36.17;;;12.10;;
19495;SDS011;9888;48.606;9.630;2022-12-15T16:47:17;32.60;;;11.40;;
19495;SDS011;9888;48.606;9.630;2022-12-15T16:49:51;34.60;;;10.80;;
19495;SDS011;9888;48.606;9.630;2022-12-15T16:52:20;32.63;;;12.53;;
19495;SDS011;9888;48.606;9.630;2022-12-15T16:54:49;28.53;;;12.60;;
19495;SDS011;9888;48.606;9.630;2022-12-15T16:57:16;35.10;;;12.90;;
19495;SDS011;9888;48.606;9.630;2022-12-15T16:59:44;29.70;;;11.53;;
19495;SDS011;9888;48.606;9.630;2022-12-15T17:02:21;28.20;;;12.27;;
19495;SDS011;9888;48.606;9.630;2022-12-15T17:04:51;25.00;;;11.30;;
19495;SDS011;9888;48.606;9.630;2022-12-15T17:07:20;28.90;;;10.87;;
19495;SDS011;9888;48.606;9.630;2022-12-15T17:09:50;21.80;;;9.30;;
19495;SDS011;9888;48.606;9.630;2022-12-15T17:12:18;21.60;;;9.43;;
19495;SDS011;9888;48.606;9.630;2022-12-15T17:14:45;22.63;;;10.03;;
19495;SDS011;9888;48.606;9.630;2022-12-15T17:17:17;26.13;;;9.93;;
19495;SDS011;9888;48.606;9.630;2022-12-15T17:19:45;27.10;;;10.77;;
19495;SDS011;9888;48.606;9.630;2022-12-15T17:22:14;30.00;;;10.67;;
19495;SDS011;9888;48.606;9.630;2022-12-15T17:24:42;26.27;;;11.30;;
19495;SDS011;9888;48.606;9.630;2022-12-15T17:27:22;23.13;;;10.60;;
19495;SDS011;9888;48.606;9.630;2022-12-15T17:29:54;25.57;;;11.27;;
19495;SDS011;9888;48.606;9.630;2022-12-15T17:32:28;24.30;;;10.87;;
19495;SDS011;9888;48.606;9.630;2022-12-15T17:34:56;24.97;;;10.57;;
19495;SDS011;9888;48.606;9.630;2022-12-15T17:37:23;25.43;;;11.87;;
19495;SDS011;9888;48.606;9.630;2022-12-15T17:39:51;26.30;;;11.90;;
19495;SDS011;9888;48.606;9.630;2022-12-15T17:42:19;21.73;;;10.13;;
19495;SDS011;9888;48.606;9.630;2022-12-15T17:44:46;27.37;;;9.17;;
19495;SDS011;9888;48.606;9.630;2022-12-15T17:47:14;25.37;;;9.90;;
19495;SDS011;9888;48.606;9.630;2022-12-15T17:49:45;29.30;;;10.13;;